createdAt,value
2022-11-03T00:00:12.914Z,13.25
2022-11-03T00:02:39.761Z,18.40
2022-11-03T00:05:26.692Z,9.55
2022-11-03T00:07:53.342Z,11.35
2022-11-03T00:10:19.917Z,13.27
2022-11-03T00:12:46.508Z,10.25
2022-11-03T00:15:13.123Z,10.88
2022-11-03T00:17:39.681Z,10.70
2022-11-03T00:20:06.737Z,15.25
2022-11-03T00:22:33.759Z,12.27
2022-11-03T00:25:00.436Z,12.07
2022-11-03T00:27:27.104Z,12.40
2022-11-03T00:29:53.760Z,12.02
2022-11-03T00:32:20.381Z,10.73
2022-11-03T00:34:46.958Z,10.05
2022-11-03T08:50:25.911Z,9.35
2022-11-03T08:52:52.533Z,9.10
2022-11-03T08:55:19.121Z,13.55
2022-11-03T08:57:45.674Z,12.68
2022-11-03T09:00:12.975Z,29.17
2022-11-03T09:02:39.683Z,68.97
2022-11-03T09:05:07.819Z,52.95
2022-11-03T09:10:23.499Z,9.55
2022-11-03T09:12:55.350Z,8.70
2022-11-03T09:15:21.938Z,7.32
2022-11-03T09:17:48.738Z,10.68
2022-11-03T09:20:15.833Z,6.57
2022-11-03T09:22:42.467Z,9.02
2022-11-03T09:25:09.685Z,10.10
2022-11-03T09:27:36.274Z,9.18
2022-11-03T09:30:18.501Z,8.32
2022-11-03T09:32:46.394Z,6.95
2022-11-03T09:35:14.688Z,9.27
2022-11-03T09:37:41.411Z,12.73
2022-11-03T09:40:10.264Z,13.15
2022-11-03T09:42:38.829Z,6.82
2022-11-03T09:45:07.783Z,8.90
2022-11-03T09:47:37.210Z,7.50
2022-11-03T09:50:05.195Z,14.30
2022-11-03T09:52:32.465Z,10.45
2022-11-03T09:54:59.810Z,8.02
2022-11-03T09:57:29.559Z,14.38
2022-11-03T09:59:56.301Z,13.13
2022-11-03T10:02:29.455Z,6.88
2022-11-03T10:04:58.156Z,10.45
2022-11-03T10:07:27.753Z,7.50
2022-11-03T10:09:56.443Z,9.02
2022-11-03T10:12:24.540Z,9.30
2022-11-03T10:14:52.602Z,7.00
2022-11-03T10:17:22.250Z,8.52
2022-11-03T10:19:52.349Z,9.63
2022-11-03T10:22:20.743Z,8.07
2022-11-03T10:24:47.878Z,9.48
2022-11-03T10:27:25.770Z,8.07
2022-11-03T10:30:12.889Z,9.48
2022-11-03T10:32:41.525Z,6.35
2022-11-03T10:35:34.055Z,7.03
2022-11-03T10:38:30.566Z,7.13
2022-11-03T10:41:10.446Z,6.97
2022-11-03T10:43:38.132Z,6.13
2022-11-03T10:49:18.571Z,11.05
2022-11-03T10:51:48.673Z,7.55
2022-11-03T10:54:18.201Z,10.55
2022-11-03T10:59:21.340Z,8.45
2022-11-03T11:01:48.152Z,7.13
2022-11-03T11:04:20.005Z,10.70
2022-11-03T11:06:47.511Z,10.70
2022-11-03T11:09:23.486Z,9.50
2022-11-03T11:12:23.502Z,7.82
2022-11-03T11:15:01.365Z,6.95
2022-11-03T11:17:37.048Z,12.13
2022-11-03T11:20:18.934Z,9.10
2022-11-03T11:22:46.025Z,8.52
2022-11-03T11:25:12.963Z,6.22
2022-11-03T11:27:39.456Z,5.38
2022-11-03T11:30:27.081Z,7.35
2022-11-03T11:33:12.431Z,10.40
2022-11-03T11:35:39.055Z,8.15
2022-11-03T11:38:47.159Z,5.72
2022-11-03T11:41:13.816Z,6.55
2022-11-03T11:43:40.424Z,7.40
2022-11-03T11:46:36.952Z,10.20
2022-11-03T11:49:17.467Z,6.00
2022-11-03T11:51:44.198Z,6.38
2022-11-03T11:54:18.556Z,7.70
2022-11-03T11:56:47.534Z,9.40
2022-11-03T11:59:25.815Z,8.73
2022-11-03T12:01:55.596Z,11.03
2022-11-03T12:06:49.399Z,7.25
2022-11-03T12:09:21.402Z,7.78
2022-11-03T12:11:55.338Z,5.20
2022-11-03T12:14:28.911Z,9.48
2022-11-03T12:16:56.938Z,5.63
2022-11-03T12:19:35.714Z,9.00
2022-11-03T12:22:04.640Z,9.32
2022-11-03T12:24:31.164Z,10.55
2022-11-03T12:26:58.994Z,7.97
2022-11-03T12:29:25.598Z,7.03
2022-11-03T12:31:52.437Z,7.28
2022-11-03T12:34:19.122Z,5.57
2022-11-03T12:36:47.972Z,7.30
2022-11-03T12:39:16.177Z,7.72
2022-11-03T12:41:42.795Z,8.82
2022-11-03T12:44:09.602Z,6.82
2022-11-03T12:46:36.220Z,8.07
2022-11-03T12:49:02.828Z,10.52
2022-11-03T12:51:29.920Z,4.75
2022-11-03T12:53:56.552Z,5.35
2022-11-03T12:56:23.174Z,5.60
2022-11-03T12:58:49.738Z,6.82
2022-11-03T13:01:16.731Z,8.57
2022-11-03T13:03:43.731Z,10.77
2022-11-03T13:06:11.782Z,7.85
2022-11-03T13:08:53.219Z,8.07
2022-11-03T13:11:54.280Z,4.70
2022-11-03T13:14:21.838Z,9.13
2022-11-03T13:16:48.459Z,7.85
2022-11-03T13:19:17.524Z,6.32
2022-11-03T13:21:44.159Z,15.27
2022-11-03T13:24:10.883Z,8.65
2022-11-03T13:26:37.454Z,8.07
2022-11-03T13:29:04.019Z,10.80
2022-11-03T13:31:31.357Z,10.55
2022-11-03T13:33:57.962Z,5.88
2022-11-03T13:36:24.561Z,7.35
2022-11-03T13:38:51.209Z,5.50
2022-11-03T13:41:17.741Z,7.15
2022-11-03T13:43:44.378Z,8.25
2022-11-03T13:46:12.975Z,6.05
2022-11-03T13:51:26.406Z,5.78
2022-11-03T13:59:27.994Z,6.45
2022-11-03T14:04:43.138Z,5.22
2022-11-03T14:07:10.636Z,6.03
2022-11-03T14:12:27.758Z,5.35
2022-11-03T14:14:54.372Z,6.82
2022-11-03T14:19:52.405Z,7.93
2022-11-03T14:22:24.051Z,8.23
2022-11-03T14:24:51.776Z,5.95
2022-11-03T14:27:20.122Z,5.50
2022-11-03T14:29:49.961Z,6.80
2022-11-03T14:32:17.654Z,9.43
2022-11-03T14:34:44.560Z,8.85
2022-11-03T14:37:11.923Z,6.68
2022-11-03T14:39:39.027Z,7.22
2022-11-03T14:42:09.681Z,6.90
2022-11-03T14:44:38.543Z,7.60
2022-11-03T14:47:07.451Z,6.35
2022-11-03T14:49:35.258Z,5.97
2022-11-03T14:52:03.463Z,3.85
2022-11-03T14:54:31.088Z,5.97
2022-11-03T14:56:58.517Z,6.65
2022-11-03T14:59:25.674Z,7.55
2022-11-03T15:01:52.944Z,5.55
2022-11-03T15:04:20.496Z,6.18
2022-11-03T15:06:47.839Z,7.22
2022-11-03T15:09:15.075Z,6.13
2022-11-03T15:11:43.289Z,5.63
2022-11-03T15:14:10.657Z,6.80
2022-11-03T15:16:37.836Z,7.43
2022-11-03T15:19:05.641Z,5.25
2022-11-03T15:21:33.026Z,7.05
2022-11-03T15:26:46.540Z,6.40
2022-11-03T15:29:13.179Z,7.03
2022-11-03T15:31:44.538Z,10.55
2022-11-03T15:34:14.089Z,8.75
2022-11-03T15:36:40.739Z,6.80
2022-11-03T15:39:07.351Z,5.65
2022-11-03T15:41:33.999Z,5.70
2022-11-03T15:44:00.519Z,6.18
2022-11-03T15:46:27.127Z,6.20
2022-11-03T15:48:54.615Z,6.22
2022-11-03T15:51:21.429Z,5.13
2022-11-03T15:53:49.476Z,9.10
2022-11-03T15:56:18.835Z,6.00
2022-11-03T15:58:45.407Z,5.28
2022-11-03T16:01:12.109Z,6.20
2022-11-03T16:03:38.890Z,6.97
2022-11-03T16:06:05.702Z,6.95
2022-11-03T16:08:32.297Z,5.38
2022-11-03T16:10:58.893Z,6.22
2022-11-03T16:13:25.745Z,8.27
2022-11-03T16:15:55.587Z,7.50
2022-11-03T16:18:22.398Z,11.20
2022-11-03T16:20:48.908Z,10.90
2022-11-03T16:23:15.608Z,7.03
2022-11-03T16:25:42.161Z,9.93
2022-11-03T16:28:09.118Z,9.32
2022-11-03T16:30:38.445Z,7.85
2022-11-03T16:33:05.193Z,8.18
2022-11-03T16:35:31.924Z,8.65
2022-11-03T16:37:58.482Z,8.07
2022-11-03T16:40:25.080Z,8.38
2022-11-03T16:42:51.696Z,11.63
2022-11-03T16:45:23.657Z,8.60
2022-11-03T16:47:51.165Z,8.85
2022-11-03T16:50:18.841Z,9.00
2022-11-03T16:52:49.743Z,11.52
2022-11-03T16:55:17.744Z,10.98
2022-11-03T16:57:44.722Z,10.15
2022-11-03T17:00:14.943Z,10.48
2022-11-03T17:02:42.039Z,8.70
2022-11-03T17:05:10.033Z,6.65
2022-11-03T17:07:36.848Z,8.85
2022-11-03T17:10:04.971Z,21.10
2022-11-03T17:12:31.709Z,10.43
2022-11-03T17:14:58.664Z,14.13
2022-11-03T17:17:25.251Z,12.75
2022-11-03T17:19:51.997Z,12.98
2022-11-03T17:22:20.286Z,9.65
2022-11-03T17:24:46.830Z,12.98
2022-11-03T17:27:16.620Z,11.95
2022-11-03T17:29:49.919Z,9.00
2022-11-03T17:32:21.781Z,8.68
2022-11-03T17:34:48.401Z,10.50
2022-11-03T17:37:15.089Z,10.88
2022-11-03T17:39:41.896Z,11.55
2022-11-03T17:42:21.662Z,11.10
2022-11-03T17:44:50.359Z,13.35
2022-11-03T17:47:19.353Z,11.07
2022-11-03T17:49:47.152Z,10.15
2022-11-03T17:52:26.884Z,12.88
2022-11-03T17:54:57.384Z,9.15
2022-11-03T17:57:25.247Z,7.60
2022-11-03T17:59:55.417Z,7.40
2022-11-03T18:02:27.210Z,11.15
2022-11-03T18:05:01.155Z,7.38
2022-11-03T18:07:29.600Z,6.28
2022-11-03T18:09:56.444Z,5.93
2022-11-03T18:12:45.040Z,6.70
2022-11-03T18:15:16.406Z,10.63
2022-11-03T18:17:43.485Z,6.70
2022-11-03T18:20:14.507Z,8.23
2022-11-03T18:22:41.049Z,6.22
2022-11-03T18:25:19.096Z,6.20
2022-11-03T18:27:46.001Z,6.13
2022-11-03T18:30:16.826Z,5.85
2022-11-03T18:32:48.305Z,9.30
2022-11-03T18:35:18.792Z,10.15
2022-11-03T18:37:46.249Z,8.30
2022-11-03T18:40:14.875Z,5.97
2022-11-03T18:42:41.717Z,9.30
2022-11-03T18:45:12.979Z,5.80
2022-11-03T18:47:40.348Z,7.25
2022-11-03T18:50:07.889Z,7.25
2022-11-03T18:52:41.991Z,5.65
2022-11-03T18:55:12.782Z,6.97
2022-11-03T18:57:39.838Z,8.60
2022-11-03T19:00:19.056Z,8.95
2022-11-03T19:02:47.437Z,7.97
2022-11-03T19:05:15.557Z,6.60
2022-11-03T19:07:45.324Z,7.15
2022-11-03T19:10:19.543Z,6.60
2022-11-03T19:12:46.897Z,6.18
2022-11-03T19:15:20.264Z,5.50
2022-11-03T19:17:49.465Z,7.07
2022-11-03T19:20:18.395Z,6.40
2022-11-03T19:22:46.426Z,5.95
2022-11-03T19:25:14.678Z,8.38
2022-11-03T19:27:45.945Z,11.10
2022-11-03T19:30:15.303Z,7.40
2022-11-03T19:32:45.932Z,9.07
2022-11-03T19:35:21.534Z,7.72
2022-11-03T19:37:51.003Z,6.90
2022-11-03T19:42:45.498Z,7.32
2022-11-03T19:45:17.700Z,5.90
2022-11-03T19:48:28.473Z,8.35
2022-11-03T19:50:45.577Z,7.72
2022-11-03T19:53:20.117Z,5.85
2022-11-03T19:55:47.454Z,5.20
2022-11-03T19:58:34.392Z,7.43
2022-11-03T20:01:07.261Z,8.70
2022-11-03T20:03:35.492Z,7.47
2022-11-03T20:06:02.148Z,7.70
2022-11-03T20:08:32.290Z,10.57
2022-11-03T20:10:59.224Z,7.63
2022-11-03T20:13:30.171Z,7.40
2022-11-03T20:16:00.519Z,9.88
2022-11-03T20:18:28.318Z,7.13
2022-11-03T20:20:55.296Z,8.38
2022-11-03T20:23:30.375Z,7.80
2022-11-03T20:25:57.439Z,8.00
2022-11-03T20:28:28.495Z,7.30
2022-11-03T20:30:56.124Z,6.35
2022-11-03T20:33:24.967Z,12.27
2022-11-03T20:35:53.710Z,8.93
2022-11-03T20:38:20.921Z,7.82
2022-11-03T20:40:49.125Z,6.55
2022-11-03T20:43:26.608Z,6.13
2022-11-03T20:45:54.945Z,8.43
2022-11-03T20:48:21.981Z,5.82
2022-11-03T20:50:48.986Z,6.03
2022-11-03T20:53:18.650Z,6.68
2022-11-03T20:55:45.343Z,5.80
2022-11-03T20:58:16.479Z,6.30
2022-11-03T21:00:46.027Z,7.30
2022-11-03T21:06:16.379Z,7.53
2022-11-03T21:08:43.940Z,8.43
2022-11-03T21:11:26.993Z,7.97
